createdAt,value
2023-04-03T00:01:27.543Z,5.30
2023-04-03T00:04:00.912Z,5.27
2023-04-03T00:06:33.884Z,5.28
2023-04-03T00:09:07.651Z,5.29
2023-04-03T00:11:42.134Z,5.38
2023-04-03T00:14:14.877Z,5.22
2023-04-03T00:16:47.681Z,5.35
2023-04-03T00:19:20.949Z,5.34
2023-04-03T00:21:54.587Z,5.28
2023-04-03T00:24:27.490Z,5.26
2023-04-03T00:27:00.068Z,5.21
2023-04-03T00:29:32.983Z,5.19
2023-04-03T00:32:06.190Z,5.17
2023-04-03T00:34:39.304Z,5.21
2023-04-03T00:37:12.216Z,5.23
2023-04-03T00:39:44.835Z,5.13
2023-04-03T00:42:17.637Z,5.15
2023-04-03T00:45:25.146Z,5.12
2023-04-03T00:48:00.640Z,5.03
2023-04-03T00:50:35.201Z,5.07
2023-04-03T00:53:11.373Z,5.06
2023-04-03T00:55:45.295Z,4.95
2023-04-03T00:58:20.500Z,4.85
2023-04-03T01:01:00.557Z,4.91
2023-04-03T01:03:33.710Z,4.96
2023-04-03T01:06:10.078Z,4.98
2023-04-03T01:08:43.637Z,5.03
2023-04-03T01:11:16.572Z,4.91
2023-04-03T01:13:50.244Z,4.85
2023-04-03T01:16:22.981Z,4.78
2023-04-03T01:18:55.509Z,4.89
2023-04-03T01:22:16.272Z,4.87
2023-04-03T01:24:48.980Z,4.82
2023-04-03T01:27:21.898Z,4.81
2023-04-03T01:29:55.088Z,4.88
2023-04-03T01:32:27.624Z,4.84
2023-04-03T01:35:00.718Z,4.89
2023-04-03T01:37:33.820Z,4.84
2023-04-03T01:40:08.071Z,4.79
2023-04-03T01:42:41.042Z,4.64
2023-04-03T01:45:14.364Z,4.80
2023-04-03T01:47:46.998Z,4.77
2023-04-03T01:50:20.445Z,4.83
2023-04-03T01:52:53.531Z,4.75
2023-04-03T01:55:26.391Z,4.69
2023-04-03T01:57:58.925Z,4.69
2023-04-03T02:00:32.134Z,4.72
2023-04-03T02:03:04.970Z,4.76
2023-04-03T02:05:37.918Z,4.63
2023-04-03T02:08:11.079Z,4.56
2023-04-03T02:10:43.615Z,4.58
2023-04-03T02:13:16.477Z,4.52
2023-04-03T02:15:49.640Z,4.47
2023-04-03T02:18:22.519Z,4.43
2023-04-03T02:20:55.398Z,4.55
2023-04-03T02:23:28.608Z,4.56
2023-04-03T02:26:12.486Z,4.58
2023-04-03T02:28:45.343Z,4.57
2023-04-03T02:31:18.907Z,4.57
2023-04-03T02:33:52.656Z,4.57
2023-04-03T02:36:25.366Z,4.60
2023-04-03T02:39:01.419Z,4.61
2023-04-03T02:41:36.223Z,4.61
2023-04-03T02:44:14.355Z,4.59
2023-04-03T02:46:47.668Z,4.64
2023-04-03T02:49:20.729Z,4.55
2023-04-03T02:51:53.621Z,4.51
2023-04-03T02:54:29.669Z,4.56
2023-04-03T02:57:02.948Z,4.52
2023-04-03T02:59:35.907Z,4.58
2023-04-03T03:02:08.772Z,4.43
2023-04-03T03:04:42.006Z,4.50
2023-04-03T03:07:14.650Z,4.49
2023-04-03T03:09:47.941Z,4.51
2023-04-03T03:12:23.003Z,4.46
2023-04-03T03:14:56.265Z,4.43
2023-04-03T03:17:29.323Z,4.43
2023-04-03T03:20:02.247Z,4.47
2023-04-03T03:22:36.190Z,4.46
2023-04-03T03:25:11.496Z,4.34
2023-04-03T03:27:44.271Z,4.36
2023-04-03T03:30:17.653Z,4.30
2023-04-03T03:32:50.936Z,4.28
2023-04-03T03:35:23.751Z,4.40
2023-04-03T03:37:56.389Z,4.43
2023-04-03T03:40:29.352Z,4.41
2023-04-03T03:43:02.405Z,4.40
2023-04-03T03:45:35.229Z,4.32
2023-04-03T03:48:08.726Z,4.32
2023-04-03T03:50:41.675Z,4.37
2023-04-03T03:53:14.657Z,4.40
2023-04-03T03:55:48.040Z,4.39
2023-04-03T03:58:20.505Z,4.34
2023-04-03T04:00:53.303Z,4.28
2023-04-03T04:03:26.533Z,4.32
2023-04-03T04:05:59.692Z,4.34
2023-04-03T04:08:32.895Z,4.33
2023-04-03T04:11:05.766Z,4.23
2023-04-03T04:13:38.744Z,4.23
2023-04-03T04:16:12.485Z,4.20
2023-04-03T04:18:45.690Z,4.20
2023-04-03T04:21:18.547Z,4.22
2023-04-03T04:23:51.643Z,4.13
2023-04-03T04:26:26.018Z,4.14
2023-04-03T04:28:59.411Z,4.17
2023-04-03T04:31:32.424Z,4.19
2023-04-03T04:34:05.635Z,4.17
2023-04-03T04:36:38.518Z,4.20
2023-04-03T04:39:11.759Z,4.26
2023-04-03T04:41:44.362Z,4.29
2023-04-03T04:44:17.323Z,4.22
2023-04-03T04:46:50.243Z,4.27
2023-04-03T04:49:23.240Z,4.25
2023-04-03T04:51:56.051Z,4.22
2023-04-03T04:54:32.317Z,4.08
2023-04-03T04:57:05.609Z,4.20
2023-04-03T04:59:38.649Z,4.22
2023-04-03T05:02:12.841Z,4.23
2023-04-03T05:04:46.707Z,4.26
2023-04-03T05:07:24.584Z,4.24
2023-04-03T05:09:57.744Z,4.07
2023-04-03T05:12:30.731Z,4.14
2023-04-03T05:15:06.368Z,4.15
2023-04-03T05:17:39.590Z,4.12
2023-04-03T05:20:14.083Z,4.08
2023-04-03T05:22:47.495Z,4.16
2023-04-03T05:25:20.522Z,4.14
2023-04-03T05:27:54.288Z,4.14
2023-04-03T05:30:28.197Z,4.04
2023-04-03T05:33:02.577Z,4.05
2023-04-03T05:35:45.298Z,4.21
2023-04-03T05:38:22.161Z,4.19
2023-04-03T05:40:55.772Z,4.08
2023-04-03T05:43:28.519Z,4.23
2023-04-03T05:46:01.793Z,4.18
2023-04-03T05:48:35.407Z,4.04
2023-04-03T05:51:10.222Z,4.13
2023-04-03T05:53:41.819Z,4.21
2023-04-03T05:56:14.581Z,4.27
2023-04-03T05:58:47.378Z,4.31
2023-04-03T06:01:20.526Z,4.15
2023-04-03T06:03:53.533Z,4.28
2023-04-03T06:06:26.460Z,4.22
2023-04-03T06:08:59.424Z,4.19
2023-04-03T06:11:32.630Z,4.28
2023-04-03T06:14:05.679Z,4.26
2023-04-03T06:16:39.970Z,4.36
2023-04-03T06:19:14.384Z,4.34
2023-04-03T06:21:51.524Z,4.43
2023-04-03T06:24:25.181Z,4.39
2023-04-03T06:26:58.766Z,4.58
2023-04-03T06:29:31.912Z,4.62
2023-04-03T06:32:04.841Z,4.60
2023-04-03T06:34:38.112Z,4.58
2023-04-03T06:37:12.662Z,4.76
2023-04-03T06:39:46.251Z,4.80
2023-04-03T06:42:19.235Z,4.81
2023-04-03T06:44:58.624Z,4.83
2023-04-03T06:47:31.184Z,4.86
2023-04-03T06:50:03.658Z,4.90
2023-04-03T06:52:36.286Z,4.94
2023-04-03T06:55:10.399Z,5.04
2023-04-03T06:57:43.361Z,5.13
2023-04-03T07:00:18.465Z,5.15
2023-04-03T07:02:51.448Z,5.20
2023-04-03T07:05:24.379Z,5.19
2023-04-03T07:07:57.201Z,5.33
2023-04-03T07:10:29.824Z,5.50
2023-04-03T07:13:03.004Z,5.52
2023-04-03T07:15:37.640Z,5.52
2023-04-03T07:18:10.430Z,5.43
2023-04-03T07:20:43.718Z,5.49
2023-04-03T07:23:16.481Z,5.47
2023-04-03T07:25:50.605Z,5.54
2023-04-03T07:28:24.536Z,5.64
2023-04-03T07:31:02.619Z,5.76
2023-04-03T07:33:35.943Z,5.71
2023-04-03T07:36:09.990Z,5.74
2023-04-03T07:38:42.414Z,5.68
2023-04-03T07:41:18.855Z,5.85
2023-04-03T07:43:53.179Z,5.77
2023-04-03T07:46:27.146Z,5.77
2023-04-03T07:48:59.775Z,5.88
2023-04-03T07:51:33.011Z,5.85
2023-04-03T07:54:05.476Z,5.99
2023-04-03T07:56:38.674Z,6.00
2023-04-03T07:59:12.865Z,6.05
2023-04-03T08:01:45.717Z,6.11
2023-04-03T08:04:18.308Z,6.15
2023-04-03T08:06:51.177Z,6.01
2023-04-03T08:09:24.058Z,5.88
2023-04-03T08:11:56.669Z,5.67
2023-04-03T08:14:29.368Z,6.06
2023-04-03T08:17:04.025Z,6.16
2023-04-03T08:19:36.586Z,6.43
2023-04-03T08:22:09.348Z,6.61
2023-04-03T08:24:56.306Z,6.74
2023-04-03T08:27:34.886Z,6.66
2023-04-03T08:30:10.017Z,6.70
2023-04-03T08:32:44.212Z,6.91
2023-04-03T08:35:17.002Z,6.90
2023-04-03T08:37:49.864Z,7.17
2023-04-03T08:40:22.997Z,7.34
2023-04-03T08:43:08.671Z,7.48
2023-04-03T08:45:48.216Z,7.76
2023-04-03T08:48:26.199Z,7.80
2023-04-03T08:51:03.658Z,7.94
2023-04-03T08:53:41.891Z,8.83
2023-04-03T08:56:19.232Z,8.49
2023-04-03T08:58:57.865Z,8.32
2023-04-03T09:01:35.845Z,8.07
2023-04-03T09:04:14.960Z,7.91
2023-04-03T09:06:52.946Z,7.80
2023-04-03T09:09:36.450Z,7.62
2023-04-03T09:12:19.743Z,7.75
2023-04-03T09:15:01.979Z,7.76
2023-04-03T09:17:44.674Z,7.77
2023-04-03T09:20:25.307Z,7.95
2023-04-03T09:22:58.398Z,7.98
2023-04-03T09:25:34.933Z,8.09
2023-04-03T09:28:11.132Z,8.16
2023-04-03T09:30:44.137Z,8.11
2023-04-03T09:33:18.798Z,8.02
2023-04-03T09:35:52.474Z,8.11
2023-04-03T09:38:26.831Z,8.40
2023-04-03T09:41:09.899Z,8.38
2023-04-03T09:43:53.677Z,8.32
2023-04-03T09:46:34.933Z,8.65
2023-04-03T09:49:13.271Z,8.76
2023-04-03T09:51:46.313Z,8.74
2023-04-03T09:54:39.633Z,8.78
2023-04-03T09:57:16.185Z,8.63
2023-04-03T10:00:00.599Z,8.53
2023-04-03T10:02:44.282Z,8.61
2023-04-03T10:05:36.325Z,8.73
2023-04-03T10:08:25.127Z,8.88
2023-04-03T10:11:19.890Z,8.85
2023-04-03T10:14:00.398Z,8.82
2023-04-03T10:16:40.435Z,8.98
2023-04-03T10:19:39.683Z,8.87
2023-04-03T10:22:22.184Z,8.99
2023-04-03T10:25:06.815Z,9.14
2023-04-03T10:27:50.991Z,9.30
2023-04-03T10:30:40.306Z,9.36
2023-04-03T10:33:24.342Z,9.19
2023-04-03T10:36:10.673Z,9.35
2023-04-03T10:38:53.259Z,9.21
2023-04-03T10:41:37.722Z,9.42
2023-04-03T10:44:18.542Z,9.59
2023-04-03T10:46:56.072Z,9.74
2023-04-03T10:49:40.646Z,9.67
2023-04-03T10:52:20.222Z,9.71
2023-04-03T10:55:03.258Z,9.80
2023-04-03T10:57:36.431Z,9.91
2023-04-03T11:00:19.414Z,9.96
2023-04-03T11:02:57.846Z,9.97
2023-04-03T11:05:39.384Z,9.76
2023-04-03T11:08:21.840Z,9.66
2023-04-03T11:10:58.093Z,9.67
2023-04-03T11:13:38.554Z,9.50
2023-04-03T11:16:16.711Z,9.33
2023-04-03T11:18:54.956Z,9.24
2023-04-03T11:21:32.239Z,9.43
2023-04-03T11:24:08.894Z,9.32
2023-04-03T11:26:45.276Z,9.20
2023-04-03T11:29:34.138Z,8.99
2023-04-03T11:32:18.739Z,9.30
2023-04-03T11:34:55.184Z,9.67
2023-04-03T11:37:36.676Z,9.67
2023-04-03T11:40:22.034Z,9.87
2023-04-03T11:42:57.390Z,10.05
2023-04-03T11:45:51.981Z,10.24
2023-04-03T11:48:57.471Z,10.45
2023-04-03T11:51:45.868Z,10.76
2023-04-03T11:54:46.361Z,10.65
2023-04-03T11:57:54.963Z,10.49
2023-04-03T12:00:56.219Z,10.17
2023-04-03T12:04:09.205Z,10.13
2023-04-03T12:07:11.616Z,10.14
2023-04-03T12:10:31.586Z,10.08
2023-04-03T12:13:18.852Z,10.13
2023-04-03T12:15:55.944Z,9.94
2023-04-03T12:18:47.847Z,9.64
2023-04-03T12:21:22.444Z,9.86
2023-04-03T12:24:05.269Z,10.12
2023-04-03T12:26:48.684Z,10.05
2023-04-03T12:29:26.848Z,9.90
2023-04-03T12:32:14.757Z,9.89
2023-04-03T12:34:58.398Z,10.08
2023-04-03T12:37:49.357Z,10.09
2023-04-03T12:40:27.978Z,9.82
2023-04-03T12:43:42.121Z,9.66
2023-04-03T12:46:19.434Z,9.39
2023-04-03T12:48:56.175Z,9.50
2023-04-03T12:51:36.812Z,9.77
2023-04-03T12:54:20.726Z,10.17
2023-04-03T12:56:54.814Z,10.38
2023-04-03T12:59:28.823Z,10.57
2023-04-03T13:02:03.079Z,10.07
2023-04-03T13:04:36.353Z,9.92
2023-04-03T13:07:20.981Z,9.79
2023-04-03T13:10:02.886Z,9.82
2023-04-03T13:12:35.849Z,10.16
2023-04-03T13:15:19.165Z,10.34
2023-04-03T13:17:54.565Z,10.06
2023-04-03T13:20:30.415Z,9.90
2023-04-03T13:23:06.192Z,9.71
2023-04-03T13:25:44.528Z,9.75
2023-04-03T13:28:22.526Z,9.64
2023-04-03T13:31:07.639Z,9.62
2023-04-03T13:33:40.930Z,9.69
2023-04-03T13:36:22.666Z,9.20
2023-04-03T13:39:08.285Z,9.01
2023-04-03T13:41:43.247Z,9.15
2023-04-03T13:44:32.621Z,9.14
2023-04-03T13:47:20.739Z,9.58
2023-04-03T13:50:06.916Z,9.68
2023-04-03T13:52:46.018Z,9.91
2023-04-03T13:55:26.804Z,10.05
2023-04-03T13:58:02.793Z,9.74
2023-04-03T14:00:41.149Z,9.35
2023-04-03T14:03:23.697Z,9.28
2023-04-03T14:05:56.637Z,9.24
2023-04-03T14:08:42.335Z,9.04
2023-04-03T14:11:20.284Z,9.09
2023-04-03T14:13:53.703Z,9.05
2023-04-03T14:16:31.990Z,9.15
2023-04-03T14:19:05.224Z,9.06
2023-04-03T14:21:38.365Z,9.00
2023-04-03T14:24:12.546Z,9.30
2023-04-03T14:26:46.377Z,9.48
2023-04-03T14:29:19.660Z,9.39
2023-04-03T14:32:03.624Z,9.31
2023-04-03T14:34:45.320Z,9.30
2023-04-03T14:37:21.425Z,9.29
2023-04-03T14:39:55.250Z,9.31
2023-04-03T14:42:31.991Z,9.55
2023-04-03T14:45:07.914Z,9.61
2023-04-03T14:47:46.740Z,9.61
2023-04-03T14:50:23.285Z,9.58
2023-04-03T14:52:58.284Z,9.26
2023-04-03T14:55:31.749Z,8.95
2023-04-03T14:58:05.154Z,9.01
2023-04-03T15:00:38.176Z,8.98
2023-04-03T15:03:17.132Z,8.98
2023-04-03T15:05:51.463Z,8.90
2023-04-03T15:08:26.755Z,9.10
2023-04-03T15:11:00.326Z,8.96
2023-04-03T15:13:33.297Z,8.97
2023-04-03T15:16:06.860Z,9.08
2023-04-03T15:18:41.348Z,9.11
2023-04-03T15:21:13.987Z,9.08
2023-04-03T15:23:47.209Z,9.28
2023-04-03T15:26:19.945Z,9.27
2023-04-03T15:28:52.677Z,9.23
2023-04-03T15:31:25.485Z,9.30
2023-04-03T15:33:58.576Z,9.29
2023-04-03T15:36:34.596Z,9.22
2023-04-03T15:39:08.297Z,9.23
2023-04-03T15:41:41.143Z,9.18
2023-04-03T15:44:14.944Z,9.18
2023-04-03T15:46:48.279Z,9.19
2023-04-03T15:49:23.437Z,9.25
2023-04-03T15:51:56.899Z,9.31
2023-04-03T15:54:31.504Z,9.36
2023-04-03T15:57:04.104Z,9.19
2023-04-03T15:59:37.307Z,8.97
2023-04-03T16:02:14.003Z,8.99
2023-04-03T16:04:47.034Z,8.78
2023-04-03T16:07:19.890Z,8.62
2023-04-03T16:09:53.408Z,8.62
2023-04-03T16:12:26.042Z,8.43
2023-04-03T16:14:59.066Z,8.48
2023-04-03T16:17:33.634Z,8.49
2023-04-03T16:20:09.249Z,8.62
2023-04-03T16:22:43.706Z,8.51
2023-04-03T16:25:15.490Z,8.57
2023-04-03T16:27:48.328Z,8.63
2023-04-03T16:30:21.356Z,8.66
2023-04-03T16:32:54.654Z,8.67
2023-04-03T16:35:27.560Z,8.70
2023-04-03T16:38:00.397Z,8.62
2023-04-03T16:40:35.009Z,8.44
2023-04-03T16:43:07.751Z,8.53
2023-04-03T16:45:40.956Z,8.40
2023-04-03T16:48:15.188Z,8.12
2023-04-03T16:50:53.389Z,8.04
2023-04-03T16:53:27.189Z,8.09
2023-04-03T16:56:01.206Z,8.13
2023-04-03T16:58:34.069Z,8.27
2023-04-03T17:01:15.746Z,8.22
2023-04-03T17:03:48.773Z,8.18
2023-04-03T17:06:24.640Z,8.10
2023-04-03T17:08:57.721Z,8.14
2023-04-03T17:14:08.325Z,7.91
2023-04-03T17:16:41.550Z,8.02
2023-04-03T17:19:14.389Z,7.93
2023-04-03T17:21:47.773Z,7.89
2023-04-03T17:24:21.158Z,8.09
2023-04-03T17:26:54.565Z,8.14
2023-04-03T17:29:27.397Z,8.10
2023-04-03T17:31:59.974Z,7.99
2023-04-03T17:34:33.730Z,7.95
2023-04-03T17:37:06.877Z,7.81
2023-04-03T17:39:40.788Z,7.92
2023-04-03T17:42:13.885Z,7.91
2023-04-03T17:44:46.765Z,7.85
2023-04-03T17:47:19.774Z,7.80
2023-04-03T17:49:52.703Z,7.85
2023-04-03T17:52:28.635Z,7.88
2023-04-03T17:55:01.679Z,7.77
2023-04-03T17:57:34.842Z,7.75
2023-04-03T18:00:09.499Z,7.81
2023-04-03T18:02:45.377Z,7.89
2023-04-03T18:05:18.435Z,7.80
2023-04-03T18:07:51.443Z,7.85
2023-04-03T18:10:25.078Z,7.86
2023-04-03T18:12:58.297Z,7.86
2023-04-03T18:15:32.087Z,7.86
2023-04-03T18:18:05.010Z,7.76
2023-04-03T18:20:37.845Z,7.84
2023-04-03T18:23:11.003Z,7.78
2023-04-03T18:25:43.765Z,7.67
2023-04-03T18:28:16.915Z,7.65
2023-04-03T18:30:49.553Z,7.58
2023-04-03T18:33:22.515Z,7.46
2023-04-03T18:35:55.148Z,7.60
2023-04-03T18:38:27.845Z,7.56
2023-04-03T18:41:01.632Z,7.57
2023-04-03T18:43:34.417Z,7.65
2023-04-03T18:46:08.256Z,7.66
2023-04-03T18:48:41.901Z,7.64
2023-04-03T18:51:15.646Z,7.67
2023-04-03T18:53:48.676Z,7.61
2023-04-03T18:56:22.467Z,7.64
2023-04-03T18:58:55.743Z,7.66
2023-04-03T19:01:28.597Z,7.55
2023-04-03T19:04:01.659Z,7.41
2023-04-03T19:06:36.005Z,7.49
2023-04-03T19:09:09.702Z,7.52
2023-04-03T19:11:42.861Z,7.47
2023-04-03T19:14:16.979Z,7.43
2023-04-03T19:16:49.997Z,7.45
2023-04-03T19:19:22.538Z,7.57
2023-04-03T19:21:55.302Z,7.51
2023-04-03T19:24:28.565Z,7.42
2023-04-03T19:27:01.269Z,7.45
2023-04-03T19:29:34.622Z,7.40
2023-04-03T19:32:07.083Z,7.30
2023-04-03T19:34:39.880Z,7.34
2023-04-03T19:37:14.394Z,7.38
2023-04-03T19:39:47.543Z,7.38
2023-04-03T19:42:20.190Z,7.38
2023-04-03T19:44:54.739Z,7.34
2023-04-03T19:47:29.974Z,7.41
2023-04-03T19:50:02.514Z,7.34
2023-04-03T19:52:35.601Z,7.41
2023-04-03T19:55:09.595Z,7.36
2023-04-03T19:57:42.474Z,7.41
2023-04-03T20:00:17.091Z,7.24
2023-04-03T20:02:49.726Z,7.19
2023-04-03T20:05:22.904Z,7.28
2023-04-03T20:07:56.001Z,7.29
2023-04-03T20:10:29.472Z,7.25
2023-04-03T20:13:04.314Z,7.28
2023-04-03T20:15:40.777Z,7.30
2023-04-03T20:18:18.146Z,7.22
2023-04-03T20:20:55.900Z,7.13
2023-04-03T20:23:29.716Z,7.17
2023-04-03T20:26:10.628Z,7.12
2023-04-03T20:28:46.156Z,7.06
2023-04-03T20:31:19.495Z,7.16
2023-04-03T20:33:53.504Z,7.12
2023-04-03T20:36:28.618Z,7.02
2023-04-03T20:39:01.517Z,6.95
2023-04-03T20:41:35.790Z,6.92
2023-04-03T20:44:08.624Z,6.91
2023-04-03T20:46:52.002Z,6.78
2023-04-03T20:49:26.600Z,6.81
2023-04-03T20:51:59.184Z,6.80
2023-04-03T20:54:32.586Z,6.80
2023-04-03T20:57:05.424Z,6.74
2023-04-03T20:59:39.433Z,6.61
2023-04-03T21:02:13.227Z,6.63
2023-04-03T21:04:50.166Z,6.61
2023-04-03T21:07:57.855Z,6.62
2023-04-03T21:11:05.445Z,6.53
2023-04-03T21:14:13.924Z,6.46
2023-04-03T21:16:43.748Z,6.44
2023-04-03T21:19:21.064Z,6.45
2023-04-03T21:21:55.185Z,6.48
2023-04-03T21:24:28.068Z,6.48
2023-04-03T21:27:03.007Z,6.45
2023-04-03T21:29:37.414Z,6.40
2023-04-03T21:32:11.348Z,6.33
2023-04-03T21:34:44.625Z,6.26
2023-04-03T21:37:17.324Z,6.13
2023-04-03T21:39:50.155Z,6.27
2023-04-03T21:42:22.812Z,6.25
2023-04-03T21:44:55.770Z,6.25
2023-04-03T21:47:28.194Z,6.34
2023-04-03T21:50:01.328Z,6.28
2023-04-03T21:52:33.960Z,6.31
2023-04-03T21:55:08.751Z,6.28
2023-04-03T21:57:40.092Z,6.26
2023-04-03T22:00:15.042Z,6.20
2023-04-03T22:02:48.386Z,6.11
2023-04-03T22:05:21.172Z,6.26
2023-04-03T22:07:54.268Z,6.27
2023-04-03T22:10:27.186Z,6.16
2023-04-03T22:12:59.769Z,6.36
2023-04-03T22:15:32.471Z,6.26
2023-04-03T22:18:05.131Z,6.21
2023-04-03T22:20:38.463Z,6.25
2023-04-03T22:23:11.236Z,6.24
2023-04-03T22:25:43.993Z,6.14
2023-04-03T22:28:17.290Z,6.20
2023-04-03T22:30:49.987Z,6.13
2023-04-03T22:33:22.727Z,6.00
2023-04-03T22:35:55.638Z,6.09
2023-04-03T22:38:28.314Z,6.09
2023-04-03T22:41:02.895Z,6.09
2023-04-03T22:43:37.456Z,6.03
2023-04-03T22:46:11.081Z,5.93
2023-04-03T22:48:45.391Z,5.86
2023-04-03T22:51:18.129Z,5.84
2023-04-03T22:53:50.776Z,5.80
2023-04-03T22:56:25.859Z,5.77
2023-04-03T22:58:59.162Z,5.72
2023-04-03T23:01:31.714Z,5.76
2023-04-03T23:04:04.936Z,5.71
2023-04-03T23:06:38.353Z,5.63
2023-04-03T23:09:11.189Z,5.64
2023-04-03T23:11:44.284Z,5.59
2023-04-03T23:14:16.745Z,5.49
2023-04-03T23:16:49.569Z,5.45
2023-04-03T23:19:22.918Z,5.42
2023-04-03T23:21:55.668Z,5.42
2023-04-03T23:24:28.217Z,5.38
2023-04-03T23:27:01.059Z,5.23
2023-04-03T23:29:34.160Z,5.31
2023-04-03T23:32:07.470Z,5.31
2023-04-03T23:34:40.193Z,5.28
2023-04-03T23:37:15.878Z,5.31
2023-04-03T23:39:48.427Z,5.32
2023-04-03T23:42:21.314Z,5.26
2023-04-03T23:44:54.045Z,5.23
2023-04-03T23:47:27.997Z,5.22
2023-04-03T23:50:00.845Z,5.14
2023-04-03T23:52:33.590Z,5.15
2023-04-03T23:55:07.391Z,5.06
2023-04-03T23:57:40.116Z,5.04
